Aérodrome :
LOGIN :

S'inscrire | Disclaimer

   EN    FR    IT 

 










Légende :    VFR   VFR Marginal   IFR   IFR Intensif   IFR Très Intensif
Visi : 
Plafond : 
>= 8 km
>= 3000ft
5 à 8 km
1000 à 3000 ft
1500m à 5 km
500 à 1000 ft
800 à 1500m
200 à 500 ft
< 800m
< 200 ft
Symboles :   Orages  Brouillard  Fortes neiges  Fortes précipitations  Vent > 20 kt
SIGMETs :   Divers  Orages  Givrage  Turbulence  Onde Orograph.  Cendres Volcan.






- Altitude de l'aérodrome : 197 ft
- Code IATA : XOG


LFMO - Orange

DERNIER METAR :
  • 040300Z AUTO 35009KT CAVOK 09/00 Q1018 NOSIG

METARs EXPIRÉS :
  • 040230Z AUTO 35009KT CAVOK 09/00 Q1017 NOSIG
  • 040200Z AUTO 35012KT CAVOK 10/00 Q1017 NOSIG
  • 040130Z AUTO 35012KT CAVOK 10/00 Q1017 NOSIG
  • 040100Z AUTO 35012KT CAVOK 10/00 Q1017 NOSIG
  • 040030Z AUTO 35013KT CAVOK 11/00 Q1017 NOSIG

TAF TAF LFMO
Valide du 04 à 03h jusqu'au 05 à 03h UTC


040200Z 0403/0503 31010KT CAVOK
BECMG 0410/0412 20010KT



MET'MAP, la Météo Aéronautique d'un coup d'oeil ! - Copyright ORBIFLY Décembre 2007 - Disclaimer

ORBIFLY MET'MAP TEAM :

Programmation & Développement : Alexandra Zaïnal
Sur une idée originale de : Baudouin d'Aumeries
Assistance à la programmation : Marc-Olivier Méhu
Soutien technique & logistique : Manuel Goepfert

Contact : metmap@orbifly.com




SOURCES & CREDITS :

   NOAA